createdAt,value
2018-12-26T00:00:52.977Z,21.73
2018-12-26T00:03:25.812Z,19.03
2018-12-26T00:05:57.186Z,29.03
2018-12-26T00:08:28.581Z,20.13
2018-12-26T00:11:02.791Z,23.20
2018-12-26T00:13:35.119Z,17.80
2018-12-26T00:16:06.249Z,20.67
2018-12-26T00:18:37.695Z,21.23
2018-12-26T00:21:12.664Z,15.20
2018-12-26T00:23:43.976Z,18.87
2018-12-26T00:26:16.967Z,16.27
2018-12-26T00:28:49.884Z,18.57
2018-12-26T00:31:22.676Z,18.07
2018-12-26T00:33:53.934Z,19.77
2018-12-26T00:36:27.018Z,19.37
2018-12-26T00:38:58.279Z,17.10
2018-12-26T00:41:34.312Z,17.77
2018-12-26T00:44:08.751Z,18.33
2018-12-26T00:46:39.997Z,16.23
2018-12-26T00:49:11.267Z,20.90
2018-12-26T00:51:43.928Z,17.43
2018-12-26T00:54:15.163Z,20.20
2018-12-26T00:56:46.459Z,19.53
2018-12-26T00:59:18.539Z,18.87
2018-12-26T01:01:51.392Z,20.57
2018-12-26T01:04:22.756Z,17.67
2018-12-26T01:06:55.994Z,18.37
2018-12-26T01:09:26.823Z,19.43
2018-12-26T01:11:58.046Z,19.57
2018-12-26T01:14:29.247Z,19.20
2018-12-26T01:17:00.488Z,16.40
2018-12-26T01:19:33.617Z,18.90
2018-12-26T01:22:05.860Z,20.10
2018-12-26T01:24:38.682Z,19.83
2018-12-26T01:27:09.929Z,19.40
2018-12-26T01:29:42.362Z,18.87
2018-12-26T01:32:13.456Z,22.73
2018-12-26T01:34:46.711Z,18.27
2018-12-26T01:37:19.573Z,20.77
2018-12-26T01:39:52.720Z,20.10
2018-12-26T01:42:25.901Z,17.97
2018-12-26T01:44:57.105Z,21.20
2018-12-26T01:47:30.061Z,19.10
2018-12-26T01:50:01.441Z,21.17
2018-12-26T01:52:36.892Z,21.33
2018-12-26T01:55:08.363Z,20.53
2018-12-26T01:57:39.422Z,22.10
2018-12-26T02:00:12.560Z,22.03
2018-12-26T02:02:46.135Z,23.00
2018-12-26T02:05:17.301Z,22.73
2018-12-26T02:07:52.157Z,19.90
2018-12-26T02:10:25.586Z,21.37
2018-12-26T02:12:58.242Z,18.73
2018-12-26T02:15:29.443Z,21.27
2018-12-26T02:18:00.763Z,20.23
2018-12-26T02:20:33.487Z,21.97
2018-12-26T02:23:04.836Z,20.63
2018-12-26T02:25:38.486Z,22.23
2018-12-26T02:28:11.396Z,22.47
2018-12-26T02:30:44.018Z,17.37
2018-12-26T02:33:15.161Z,20.37
2018-12-26T02:35:47.367Z,24.73
2018-12-26T02:38:20.026Z,22.43
2018-12-26T02:40:51.549Z,20.77
2018-12-26T02:43:22.701Z,21.67
2018-12-26T02:45:53.874Z,22.70
2018-12-26T02:48:27.920Z,22.87
2018-12-26T02:51:00.931Z,23.20
2018-12-26T02:53:45.105Z,24.97
2018-12-26T02:56:12.526Z,24.37
2018-12-26T02:58:46.610Z,25.20
2018-12-26T03:01:19.348Z,23.03
2018-12-26T03:03:54.987Z,25.23
2018-12-26T03:06:29.268Z,24.43
2018-12-26T03:09:01.789Z,25.20
2018-12-26T03:11:34.161Z,25.10
2018-12-26T03:14:08.971Z,21.97
2018-12-26T03:16:43.833Z,24.70
2018-12-26T03:19:15.178Z,19.80
2018-12-26T03:21:47.397Z,23.43
2018-12-26T03:24:22.786Z,22.60
2018-12-26T03:26:56.451Z,19.90
2018-12-26T03:29:32.436Z,20.93
2018-12-26T03:32:05.610Z,20.03
2018-12-26T03:34:45.023Z,22.80
2018-12-26T03:37:11.296Z,22.83
2018-12-26T03:39:45.793Z,22.83
2018-12-26T03:42:18.802Z,25.37
2018-12-26T03:44:52.048Z,24.37
2018-12-26T03:47:26.397Z,25.77
2018-12-26T03:49:58.890Z,21.03
2018-12-26T03:52:30.197Z,22.03
2018-12-26T03:55:03.405Z,23.00
2018-12-26T03:57:36.993Z,22.90
2018-12-26T04:00:12.574Z,20.87
2018-12-26T04:02:45.204Z,20.90
2018-12-26T04:05:18.360Z,21.00
2018-12-26T04:07:51.087Z,20.47
2018-12-26T04:10:24.283Z,22.40
2018-12-26T04:12:59.746Z,23.03
2018-12-26T04:15:33.535Z,22.30
2018-12-26T04:18:14.879Z,21.63
2018-12-26T04:20:43.513Z,21.93
2018-12-26T04:23:14.960Z,21.70
2018-12-26T04:25:46.214Z,22.43
2018-12-26T04:28:18.995Z,20.90
2018-12-26T04:30:52.886Z,20.93
2018-12-26T04:33:29.697Z,20.57
2018-12-26T04:36:00.160Z,23.37
2018-12-26T04:38:31.333Z,19.63
2018-12-26T04:41:02.488Z,18.23
2018-12-26T04:43:34.704Z,19.57
2018-12-26T04:46:11.486Z,18.97
2018-12-26T04:48:42.718Z,17.07
2018-12-26T04:51:15.506Z,18.83
2018-12-26T04:53:47.926Z,17.73
2018-12-26T04:56:21.284Z,22.30
2018-12-26T04:58:52.398Z,20.77
2018-12-26T05:01:26.434Z,19.63
2018-12-26T05:03:59.560Z,24.87
2018-12-26T05:06:39.601Z,23.40
2018-12-26T05:09:06.058Z,18.10
2018-12-26T05:11:40.349Z,20.00
2018-12-26T05:14:13.329Z,24.53
2018-12-26T05:16:48.362Z,19.43
2018-12-26T05:19:19.651Z,25.47
2018-12-26T05:21:50.789Z,21.87
2018-12-26T05:24:23.757Z,22.63
2018-12-26T05:26:54.975Z,19.80
2018-12-26T05:29:27.314Z,20.53
2018-12-26T05:31:59.867Z,22.73
2018-12-26T05:34:31.042Z,20.13
2018-12-26T05:37:05.957Z,24.40
2018-12-26T05:39:37.502Z,21.50
2018-12-26T05:42:11.893Z,20.10
2018-12-26T05:44:44.798Z,29.13
2018-12-26T05:47:16.013Z,22.00
2018-12-26T05:49:48.710Z,25.13
2018-12-26T05:52:19.878Z,22.80
2018-12-26T05:54:51.046Z,25.17
2018-12-26T05:57:23.753Z,24.30
2018-12-26T05:59:54.918Z,27.87
2018-12-26T06:02:27.593Z,22.60
2018-12-26T06:05:00.584Z,24.13
2018-12-26T06:07:37.165Z,36.80
2018-12-26T06:10:06.475Z,22.83
2018-12-26T06:12:39.286Z,23.27
2018-12-26T06:15:15.663Z,22.57
2018-12-26T06:17:49.089Z,26.77
2018-12-26T06:20:21.741Z,23.20
2018-12-26T06:22:55.755Z,29.90
2018-12-26T06:25:30.857Z,22.03
2018-12-26T06:28:09.036Z,30.73
2018-12-26T06:30:41.427Z,25.40
2018-12-26T06:33:14.362Z,29.87
2018-12-26T06:35:47.398Z,23.10
2018-12-26T06:38:19.780Z,23.17
2018-12-26T06:40:52.445Z,24.07
2018-12-26T06:43:24.975Z,28.13
2018-12-26T06:45:58.818Z,21.50
2018-12-26T06:48:35.202Z,25.60
2018-12-26T06:51:08.719Z,21.83
2018-12-26T06:53:42.486Z,18.13
2018-12-26T06:56:16.782Z,19.37
2018-12-26T06:58:51.945Z,17.93
2018-12-26T07:01:27.232Z,26.20
2018-12-26T07:03:59.530Z,19.67
2018-12-26T07:06:35.498Z,19.60
2018-12-26T07:09:10.126Z,21.63
2018-12-26T07:11:46.594Z,20.13
2018-12-26T07:14:22.898Z,13.07
2018-12-26T07:16:56.163Z,16.10
2018-12-26T07:19:27.545Z,14.20
2018-12-26T07:21:58.617Z,12.00
2018-12-26T07:24:31.595Z,14.10
2018-12-26T07:27:02.576Z,13.47
2018-12-26T07:29:37.554Z,11.03
2018-12-26T07:32:08.547Z,13.47
2018-12-26T07:34:52.487Z,13.93
2018-12-26T07:37:38.803Z,13.30
2018-12-26T07:40:27.540Z,10.53
2018-12-26T07:43:38.100Z,13.83
2018-12-26T07:46:17.855Z,11.77
2018-12-26T07:48:59.634Z,11.07
2018-12-26T07:51:33.928Z,13.13
2018-12-26T07:54:24.315Z,15.60
2018-12-26T07:57:04.285Z,18.07
2018-12-26T07:59:39.279Z,12.93
2018-12-26T08:02:18.518Z,11.47
2018-12-26T08:05:12.428Z,12.37
2018-12-26T08:07:46.640Z,12.03
2018-12-26T08:10:22.051Z,14.67
2018-12-26T08:13:07.323Z,13.03
2018-12-26T08:15:53.554Z,11.77
2018-12-26T08:18:40.704Z,11.67
2018-12-26T08:21:33.853Z,13.57
2018-12-26T08:24:17.033Z,15.30
2018-12-26T08:27:07.930Z,15.93
2018-12-26T08:30:20.773Z,15.77
2018-12-26T08:33:09.707Z,19.17
2018-12-26T08:35:54.114Z,17.83
2018-12-26T08:38:28.744Z,15.63
2018-12-26T08:41:11.031Z,13.20
2018-12-26T08:44:02.435Z,16.93
2018-12-26T08:47:10.308Z,14.27
2018-12-26T08:49:37.267Z,17.87
2018-12-26T08:52:32.093Z,15.03
2018-12-26T08:55:22.382Z,16.67
2018-12-26T08:58:12.388Z,15.33
2018-12-26T09:00:54.192Z,16.97
2018-12-26T09:03:34.041Z,15.30
2018-12-26T09:06:08.308Z,15.47
2018-12-26T09:08:54.671Z,16.97
2018-12-26T09:11:44.630Z,18.17
2018-12-26T09:14:33.847Z,16.40
2018-12-26T09:17:24.878Z,19.90
2018-12-26T09:20:10.492Z,17.70
2018-12-26T09:22:45.452Z,17.30
2018-12-26T09:25:48.956Z,17.83
2018-12-26T09:28:30.753Z,19.63
2018-12-26T09:34:13.697Z,21.20
2018-12-26T09:36:41.570Z,19.20
2018-12-26T09:39:19.947Z,23.67
2018-12-26T09:42:03.538Z,19.20
2018-12-26T09:45:00.828Z,19.67
2018-12-26T09:47:47.718Z,18.40
2018-12-26T09:50:29.997Z,17.43
2018-12-26T09:53:07.785Z,22.87
2018-12-26T09:55:44.069Z,20.47
2018-12-26T09:58:20.947Z,18.57
2018-12-26T10:00:59.143Z,18.23
2018-12-26T10:03:43.844Z,16.73
2018-12-26T10:06:20.122Z,18.50
2018-12-26T10:08:56.318Z,17.43
2018-12-26T10:11:34.494Z,16.37
2018-12-26T10:14:17.317Z,22.53
2018-12-26T10:16:53.411Z,17.03
2018-12-26T10:19:31.413Z,18.93
2018-12-26T10:22:27.539Z,18.43
2018-12-26T10:25:04.036Z,20.63
2018-12-26T10:27:48.187Z,19.97
2018-12-26T10:30:34.533Z,17.00
2018-12-26T10:33:11.971Z,16.40
2018-12-26T10:35:47.485Z,19.90
2018-12-26T10:38:18.672Z,15.27
2018-12-26T10:41:18.820Z,18.53
2018-12-26T10:43:54.895Z,17.43
2018-12-26T10:46:32.554Z,22.03
2018-12-26T10:49:13.835Z,16.80
2018-12-26T10:51:52.756Z,14.63
2018-12-26T10:54:27.295Z,16.10
2018-12-26T10:57:04.382Z,15.90
2018-12-26T10:59:54.142Z,14.27
2018-12-26T11:02:33.981Z,14.50
2018-12-26T11:05:09.571Z,14.73
2018-12-26T11:07:44.491Z,10.20
2018-12-26T11:11:00.547Z,10.27
2018-12-26T11:13:38.006Z,12.97
2018-12-26T11:16:15.796Z,11.30
2018-12-26T11:18:50.057Z,11.20
2018-12-26T11:21:27.720Z,9.87
2018-12-26T11:24:04.498Z,10.30
2018-12-26T11:26:44.662Z,7.93
2018-12-26T11:29:22.266Z,8.13
2018-12-26T11:31:55.358Z,7.77
2018-12-26T11:34:38.564Z,11.50
2018-12-26T11:37:13.409Z,7.23
2018-12-26T11:39:55.557Z,6.47
2018-12-26T11:46:27.292Z,8.50
2018-12-26T11:48:57.571Z,8.57
2018-12-26T11:51:42.195Z,7.87
2018-12-26T11:54:13.342Z,9.73
2018-12-26T11:56:44.475Z,8.57
2018-12-26T11:59:15.526Z,12.77
2018-12-26T12:01:46.852Z,9.63
2018-12-26T12:04:17.947Z,11.40
2018-12-26T12:06:49.286Z,14.00
2018-12-26T12:09:20.572Z,11.80
2018-12-26T12:11:52.326Z,11.67
2018-12-26T12:14:24.837Z,12.70
2018-12-26T12:16:56.348Z,9.83
2018-12-26T12:19:27.617Z,10.10
2018-12-26T12:21:58.843Z,14.47
2018-12-26T12:24:29.823Z,14.77
2018-12-26T12:27:01.024Z,12.43
2018-12-26T12:29:36.019Z,12.00
2018-12-26T12:32:05.536Z,12.23
2018-12-26T12:34:36.776Z,14.63
2018-12-26T12:37:08.228Z,13.10
2018-12-26T12:39:39.718Z,12.50
2018-12-26T12:42:11.146Z,13.37
2018-12-26T12:44:42.571Z,15.70
2018-12-26T12:47:13.737Z,15.73
2018-12-26T12:49:45.121Z,15.07
2018-12-26T12:52:16.444Z,14.43
2018-12-26T12:54:48.510Z,16.73
2018-12-26T12:57:19.850Z,17.53
2018-12-26T12:59:51.443Z,15.43
2018-12-26T13:02:22.676Z,15.57
2018-12-26T13:04:54.178Z,13.60
2018-12-26T13:07:25.517Z,16.30
2018-12-26T13:09:56.649Z,18.20
2018-12-26T13:12:27.927Z,14.97
2018-12-26T13:14:59.226Z,15.07
2018-12-26T13:17:30.521Z,14.93
2018-12-26T13:20:01.840Z,18.03
2018-12-26T13:22:33.031Z,16.87
2018-12-26T13:25:04.478Z,19.77
2018-12-26T13:27:35.704Z,13.10
2018-12-26T13:30:08.536Z,13.97
2018-12-26T13:32:39.719Z,16.40
2018-12-26T13:35:10.979Z,13.53
2018-12-26T13:37:45.095Z,15.60
2018-12-26T13:40:16.287Z,16.90
2018-12-26T13:42:47.690Z,16.83
2018-12-26T13:45:18.871Z,19.57
2018-12-26T13:47:49.917Z,17.57
2018-12-26T13:50:21.201Z,20.33
2018-12-26T13:52:52.463Z,19.87
2018-12-26T13:55:23.633Z,19.93
2018-12-26T13:57:55.061Z,20.67
2018-12-26T14:00:26.285Z,19.83
2018-12-26T14:02:57.586Z,22.00
2018-12-26T14:05:30.195Z,23.63
2018-12-26T14:08:01.462Z,22.60
2018-12-26T14:10:32.654Z,24.23
2018-12-26T14:13:03.814Z,25.03
2018-12-26T14:15:35.071Z,22.10
2018-12-26T14:18:06.319Z,23.30
2018-12-26T14:20:37.504Z,29.47
2018-12-26T14:23:08.673Z,19.57
2018-12-26T14:25:39.930Z,17.90
2018-12-26T14:28:11.124Z,21.90
2018-12-26T14:30:42.449Z,20.47
2018-12-26T14:33:14.752Z,20.60
2018-12-26T14:35:52.265Z,20.67
2018-12-26T14:38:23.511Z,24.27
2018-12-26T14:40:54.844Z,19.37
2018-12-26T14:43:25.959Z,18.83
2018-12-26T14:45:57.255Z,21.57
2018-12-26T14:48:28.647Z,18.90
2018-12-26T14:50:59.686Z,18.50
2018-12-26T14:53:30.808Z,21.73
2018-12-26T14:56:02.099Z,20.63
2018-12-26T14:58:33.316Z,19.67
2018-12-26T15:01:04.766Z,21.47
2018-12-26T15:03:35.913Z,20.67
2018-12-26T15:06:07.251Z,22.63
2018-12-26T15:08:38.433Z,22.13
2018-12-26T15:11:09.611Z,24.23
2018-12-26T15:13:42.529Z,21.70
2018-12-26T15:16:13.820Z,23.20
2018-12-26T15:18:45.176Z,22.60
2018-12-26T15:21:16.497Z,22.50
2018-12-26T15:23:47.551Z,24.33
2018-12-26T15:26:18.876Z,34.13
2018-12-26T15:28:50.098Z,28.13
2018-12-26T15:31:21.487Z,30.23
2018-12-26T15:33:52.811Z,29.10
2018-12-26T15:36:24.181Z,22.93
2018-12-26T15:38:55.361Z,24.20
2018-12-26T15:41:26.656Z,28.97
2018-12-26T15:43:57.879Z,28.23
2018-12-26T15:46:29.097Z,28.63
2018-12-26T15:49:03.774Z,30.10
2018-12-26T15:51:35.060Z,23.67
2018-12-26T15:54:06.279Z,25.10
2018-12-26T15:56:38.629Z,28.30
2018-12-26T15:59:09.859Z,26.43
2018-12-26T16:01:41.248Z,23.43
2018-12-26T16:04:12.777Z,28.27
2018-12-26T16:06:43.880Z,23.77
2018-12-26T16:09:15.240Z,25.03
2018-12-26T16:11:46.555Z,27.10
2018-12-26T16:14:18.044Z,24.40
2018-12-26T16:16:49.161Z,19.50
2018-12-26T16:19:20.446Z,17.10
2018-12-26T16:21:51.653Z,19.27
2018-12-26T16:24:22.864Z,17.30
2018-12-26T16:26:54.073Z,16.40
2018-12-26T16:29:25.385Z,20.07
2018-12-26T16:31:56.615Z,13.97
2018-12-26T16:34:30.479Z,17.13
2018-12-26T16:37:02.813Z,17.20
2018-12-26T16:39:36.062Z,16.47
2018-12-26T16:42:07.420Z,16.63
2018-12-26T16:44:38.717Z,20.57
2018-12-26T16:47:09.887Z,19.63
2018-12-26T16:49:41.236Z,21.37
2018-12-26T16:52:12.483Z,20.07
2018-12-26T16:54:43.815Z,18.00
2018-12-26T16:57:15.040Z,17.13
2018-12-26T16:59:46.302Z,19.53
2018-12-26T17:02:17.580Z,20.80
2018-12-26T17:04:48.753Z,17.30
2018-12-26T17:07:19.984Z,20.53
2018-12-26T17:09:51.524Z,18.87
2018-12-26T17:12:22.722Z,13.80
2018-12-26T17:14:53.937Z,11.97
2018-12-26T17:17:25.192Z,15.43
2018-12-26T17:19:56.492Z,13.77
2018-12-26T17:22:27.815Z,14.97
2018-12-26T17:24:58.975Z,18.73
2018-12-26T17:27:30.204Z,12.00
2018-12-26T17:30:01.514Z,12.17
2018-12-26T17:32:32.739Z,12.10
2018-12-26T17:35:04.026Z,11.60
2018-12-26T17:37:35.283Z,14.37
2018-12-26T17:40:07.209Z,12.67
2018-12-26T17:42:38.522Z,13.13
2018-12-26T17:45:09.783Z,11.27
2018-12-26T17:47:41.022Z,13.53
2018-12-26T17:50:57.971Z,15.67
2018-12-26T17:54:12.720Z,16.40
2018-12-26T17:56:56.886Z,18.60
2018-12-26T17:59:39.551Z,22.40
2018-12-26T18:02:21.308Z,20.83
2018-12-26T18:04:52.668Z,22.37
2018-12-26T18:07:23.854Z,32.37
2018-12-26T18:09:54.983Z,21.17
2018-12-26T18:12:26.253Z,25.43
2018-12-26T18:14:59.790Z,22.00
2018-12-26T18:17:31.252Z,20.13
2018-12-26T18:20:02.515Z,19.93
2018-12-26T18:22:34.007Z,19.53
2018-12-26T18:25:05.492Z,18.53
2018-12-26T18:27:37.000Z,21.20
2018-12-26T18:30:12.115Z,19.73
2018-12-26T18:32:43.340Z,27.73
2018-12-26T18:35:14.637Z,20.00
2018-12-26T18:37:46.043Z,23.03
2018-12-26T18:40:17.371Z,18.23
2018-12-26T18:42:49.046Z,19.73
2018-12-26T18:45:20.314Z,18.73
2018-12-26T18:47:52.970Z,20.30
2018-12-26T18:50:24.181Z,14.70
2018-12-26T18:52:55.388Z,16.10
2018-12-26T18:55:26.593Z,13.80
2018-12-26T18:57:58.104Z,15.77
2018-12-26T19:00:29.614Z,14.47
2018-12-26T19:03:01.113Z,14.30
2018-12-26T19:05:32.243Z,13.17
2018-12-26T19:08:03.668Z,18.10
2018-12-26T19:10:34.906Z,16.43
2018-12-26T19:13:06.066Z,15.73
2018-12-26T19:15:37.312Z,16.57
2018-12-26T19:18:08.623Z,14.97
2018-12-26T19:20:39.896Z,19.87
2018-12-26T19:23:11.315Z,15.53
2018-12-26T19:25:43.583Z,14.87
2018-12-26T19:28:14.862Z,14.03
2018-12-26T19:30:46.002Z,15.50
2018-12-26T19:33:17.285Z,14.27
2018-12-26T19:35:48.486Z,16.07
2018-12-26T19:38:19.742Z,14.40
2018-12-26T19:40:51.019Z,13.70
2018-12-26T19:43:22.054Z,18.63
2018-12-26T19:45:53.705Z,14.67
2018-12-26T19:48:25.974Z,14.90
2018-12-26T19:50:57.315Z,12.33
2018-12-26T19:53:28.650Z,13.50
2018-12-26T19:56:00.062Z,14.87
2018-12-26T19:58:31.329Z,16.23
2018-12-26T20:01:02.505Z,14.67
2018-12-26T20:03:33.745Z,17.83
2018-12-26T20:06:05.117Z,14.53
2018-12-26T20:08:36.590Z,15.60
2018-12-26T20:11:07.755Z,13.90
2018-12-26T20:13:38.946Z,18.97
2018-12-26T20:16:12.273Z,13.23
2018-12-26T20:18:43.531Z,14.33
2018-12-26T20:21:14.751Z,12.63
2018-12-26T20:23:45.928Z,13.53
2018-12-26T20:26:17.154Z,17.27
2018-12-26T20:28:48.356Z,16.17
2018-12-26T20:31:19.887Z,22.57
2018-12-26T20:33:51.058Z,16.20
2018-12-26T20:36:22.372Z,12.47
2018-12-26T20:38:53.694Z,16.87
2018-12-26T20:41:24.910Z,11.07
2018-12-26T20:43:56.334Z,16.37
2018-12-26T20:46:27.552Z,15.17
2018-12-26T20:48:58.830Z,17.93
2018-12-26T20:51:30.148Z,15.20
2018-12-26T20:54:01.414Z,12.90
2018-12-26T20:56:32.718Z,12.43
2018-12-26T20:59:03.995Z,12.17
2018-12-26T21:01:35.133Z,13.47
2018-12-26T21:04:06.540Z,14.07
2018-12-26T21:06:37.755Z,11.50
2018-12-26T21:09:08.966Z,11.47
2018-12-26T21:11:40.093Z,13.90
2018-12-26T21:14:11.276Z,11.97
2018-12-26T21:16:42.658Z,13.27
2018-12-26T21:19:13.963Z,12.77
2018-12-26T21:21:45.183Z,12.60
2018-12-26T21:24:16.605Z,16.70
2018-12-26T21:26:47.811Z,14.07
2018-12-26T21:29:19.135Z,15.33
2018-12-26T21:31:50.473Z,13.33
2018-12-26T21:34:21.645Z,18.20
2018-12-26T21:36:52.908Z,13.07
2018-12-26T21:39:23.992Z,14.33
2018-12-26T21:41:55.190Z,21.27
2018-12-26T21:44:26.421Z,12.50
2018-12-26T21:46:57.735Z,16.50
2018-12-26T21:49:29.235Z,11.20
2018-12-26T21:52:01.476Z,15.27
2018-12-26T21:54:32.707Z,16.83
2018-12-26T21:57:04.026Z,12.53
2018-12-26T21:59:35.193Z,15.27
2018-12-26T22:02:06.307Z,17.77
2018-12-26T22:04:37.495Z,12.57
2018-12-26T22:07:08.614Z,15.67
2018-12-26T22:09:39.825Z,13.90
2018-12-26T22:12:10.930Z,12.33
2018-12-26T22:14:42.267Z,22.50
2018-12-26T22:17:13.575Z,19.63
2018-12-26T22:19:44.799Z,17.17
2018-12-26T22:22:16.024Z,15.40
2018-12-26T22:24:47.218Z,15.27
2018-12-26T22:27:18.542Z,17.30
2018-12-26T22:29:49.817Z,10.53
2018-12-26T22:32:20.968Z,16.07
2018-12-26T22:34:53.248Z,15.87
2018-12-26T22:37:24.576Z,15.40
2018-12-26T22:39:55.825Z,13.63
2018-12-26T22:42:27.117Z,17.67
2018-12-26T22:44:58.441Z,12.00
2018-12-26T22:47:29.758Z,12.77
2018-12-26T22:50:01.113Z,16.67
2018-12-26T22:52:33.418Z,14.10
2018-12-26T22:55:04.810Z,13.50
2018-12-26T22:57:35.895Z,14.03
2018-12-26T23:00:11.653Z,15.77
2018-12-26T23:02:42.864Z,11.80
2018-12-26T23:05:14.170Z,15.47
2018-12-26T23:07:45.594Z,12.87
2018-12-26T23:10:16.795Z,13.43
2018-12-26T23:12:49.118Z,14.33
2018-12-26T23:15:20.411Z,10.90
2018-12-26T23:17:51.659Z,21.30
2018-12-26T23:20:22.854Z,11.60
2018-12-26T23:22:53.944Z,10.20
2018-12-26T23:25:25.328Z,14.17
2018-12-26T23:27:56.717Z,10.17
2018-12-26T23:30:27.882Z,12.63
2018-12-26T23:32:59.087Z,12.83
2018-12-26T23:35:30.817Z,14.03
2018-12-26T23:38:03.002Z,14.13
2018-12-26T23:40:34.167Z,10.37
2018-12-26T23:43:05.266Z,12.67
2018-12-26T23:45:36.605Z,10.77
2018-12-26T23:48:07.783Z,10.27
2018-12-26T23:50:38.924Z,9.40
2018-12-26T23:53:10.125Z,8.57
2018-12-26T23:55:41.422Z,10.93
2018-12-26T23:58:12.474Z,11.13
